sensor_id;sensor_type;location;lat;lon;timestamp;temperature;humidity
1277;DHT22;631;51.024;13.826;2023-02-08T00:01:13;-4.70;99.90
1277;DHT22;631;51.024;13.826;2023-02-08T00:03:39;-4.70;99.90
1277;DHT22;631;51.024;13.826;2023-02-08T00:06:05;-4.60;99.90
1277;DHT22;631;51.024;13.826;2023-02-08T00:08:32;-4.70;99.90
1277;DHT22;631;51.024;13.826;2023-02-08T00:10:58;-4.70;99.90
1277;DHT22;631;51.024;13.826;2023-02-08T00:13:23;-4.70;99.90
1277;DHT22;631;51.024;13.826;2023-02-08T00:15:51;-4.80;99.90
1277;DHT22;631;51.024;13.826;2023-02-08T00:18:17;-4.90;99.90
1277;DHT22;631;51.024;13.826;2023-02-08T00:20:44;-4.90;99.90
1277;DHT22;631;51.024;13.826;2023-02-08T00:23:11;-4.90;99.90
1277;DHT22;631;51.024;13.826;2023-02-08T00:25:37;-4.90;99.90
1277;DHT22;631;51.024;13.826;2023-02-08T00:28:03;-5.00;99.90
1277;DHT22;631;51.024;13.826;2023-02-08T00:30:29;-5.00;99.90
1277;DHT22;631;51.024;13.826;2023-02-08T00:32:54;-5.00;99.90
1277;DHT22;631;51.024;13.826;2023-02-08T00:35:20;-5.10;99.90
1277;DHT22;631;51.024;13.826;2023-02-08T00:37:46;-5.00;99.90
1277;DHT22;631;51.024;13.826;2023-02-08T00:40:11;-5.10;99.90
1277;DHT22;631;51.024;13.826;2023-02-08T00:42:37;-5.10;99.90
1277;DHT22;631;51.024;13.826;2023-02-08T00:45:03;-5.10;99.90
1277;DHT22;631;51.024;13.826;2023-02-08T00:47:29;-5.10;99.90
1277;DHT22;631;51.024;13.826;2023-02-08T00:49:54;-5.20;99.90
1277;DHT22;631;51.024;13.826;2023-02-08T00:52:20;-5.20;99.90
1277;DHT22;631;51.024;13.826;2023-02-08T00:54:46;-5.30;99.90
1277;DHT22;631;51.024;13.826;2023-02-08T00:57:12;-5.30;99.90
1277;DHT22;631;51.024;13.826;2023-02-08T00:59:38;-5.30;99.90
1277;DHT22;631;51.024;13.826;2023-02-08T01:02:04;-5.30;99.90
1277;DHT22;631;51.024;13.826;2023-02-08T01:04:30;-5.30;99.90
1277;DHT22;631;51.024;13.826;2023-02-08T01:06:56;-5.30;99.90
1277;DHT22;631;51.024;13.826;2023-02-08T01:09:22;-5.30;99.90
1277;DHT22;631;51.024;13.826;2023-02-08T01:11:48;-5.30;99.90
1277;DHT22;631;51.024;13.826;2023-02-08T01:14:13;-5.30;99.90
1277;DHT22;631;51.024;13.826;2023-02-08T01:16:39;-5.40;99.90
1277;DHT22;631;51.024;13.826;2023-02-08T01:19:05;-5.40;99.90
1277;DHT22;631;51.024;13.826;2023-02-08T01:21:33;-5.40;99.90
1277;DHT22;631;51.024;13.826;2023-02-08T01:23:59;-5.30;99.90
1277;DHT22;631;51.024;13.826;2023-02-08T01:26:26;-5.40;99.90
1277;DHT22;631;51.024;13.826;2023-02-08T01:28:53;-5.40;99.90
1277;DHT22;631;51.024;13.826;2023-02-08T01:31:26;-5.40;99.90
1277;DHT22;631;51.024;13.826;2023-02-08T01:33:54;-5.40;99.90
1277;DHT22;631;51.024;13.826;2023-02-08T01:36:20;-5.40;99.90
1277;DHT22;631;51.024;13.826;2023-02-08T01:38:46;-5.40;99.90
1277;DHT22;631;51.024;13.826;2023-02-08T01:41:20;-5.40;99.90
1277;DHT22;631;51.024;13.826;2023-02-08T01:44:05;-5.50;99.90
1277;DHT22;631;51.024;13.826;2023-02-08T01:46:33;-5.50;99.90
1277;DHT22;631;51.024;13.826;2023-02-08T01:49:07;-5.50;99.90
1277;DHT22;631;51.024;13.826;2023-02-08T01:51:38;-5.40;99.90
1277;DHT22;631;51.024;13.826;2023-02-08T01:54:06;-5.40;99.90
1277;DHT22;631;51.024;13.826;2023-02-08T01:56:36;-5.40;99.90
1277;DHT22;631;51.024;13.826;2023-02-08T01:59:06;-5.30;99.90
1277;DHT22;631;51.024;13.826;2023-02-08T02:01:33;-5.30;99.90
1277;DHT22;631;51.024;13.826;2023-02-08T02:04:02;-5.30;99.90
1277;DHT22;631;51.024;13.826;2023-02-08T02:06:33;-5.30;99.90
1277;DHT22;631;51.024;13.826;2023-02-08T02:11:50;-5.40;99.90
1277;DHT22;631;51.024;13.826;2023-02-08T02:14:17;-5.30;99.90
1277;DHT22;631;51.024;13.826;2023-02-08T02:16:43;-5.40;99.90
1277;DHT22;631;51.024;13.826;2023-02-08T02:19:37;-5.40;99.90
1277;DHT22;631;51.024;13.826;2023-02-08T02:32:57;-5.60;99.90
1277;DHT22;631;51.024;13.826;2023-02-08T02:46:26;-5.60;99.90
1277;DHT22;631;51.024;13.826;2023-02-08T02:51:27;-5.60;99.90
1277;DHT22;631;51.024;13.826;2023-02-08T02:54:13;-5.60;99.90
1277;DHT22;631;51.024;13.826;2023-02-08T02:56:43;-5.70;99.90
1277;DHT22;631;51.024;13.826;2023-02-08T02:59:12;-5.70;99.90
1277;DHT22;631;51.024;13.826;2023-02-08T03:01:42;-5.60;99.90
1277;DHT22;631;51.024;13.826;2023-02-08T03:20:49;-5.80;99.90
1277;DHT22;631;51.024;13.826;2023-02-08T03:28:54;-5.70;99.90
1277;DHT22;631;51.024;13.826;2023-02-08T03:34:05;-5.70;99.90
1277;DHT22;631;51.024;13.826;2023-02-08T03:36:48;-5.60;99.90
1277;DHT22;631;51.024;13.826;2023-02-08T03:39:20;-5.60;99.90
1277;DHT22;631;51.024;13.826;2023-02-08T03:41:49;-5.60;99.90
1277;DHT22;631;51.024;13.826;2023-02-08T03:44:21;-5.60;99.90
1277;DHT22;631;51.024;13.826;2023-02-08T03:46:52;-5.60;99.90
1277;DHT22;631;51.024;13.826;2023-02-08T03:49:27;-5.50;99.90
1277;DHT22;631;51.024;13.826;2023-02-08T03:51:56;-5.60;99.90
1277;DHT22;631;51.024;13.826;2023-02-08T03:54:26;-5.60;99.90
1277;DHT22;631;51.024;13.826;2023-02-08T03:57:04;-5.60;99.90
1277;DHT22;631;51.024;13.826;2023-02-08T03:59:37;-5.60;99.90
1277;DHT22;631;51.024;13.826;2023-02-08T04:02:06;-5.60;99.90
1277;DHT22;631;51.024;13.826;2023-02-08T04:04:36;-5.60;99.90
1277;DHT22;631;51.024;13.826;2023-02-08T04:07:04;-5.70;99.90
1277;DHT22;631;51.024;13.826;2023-02-08T04:09:30;-5.70;99.90
1277;DHT22;631;51.024;13.826;2023-02-08T04:11:55;-5.70;99.90
1277;DHT22;631;51.024;13.826;2023-02-08T04:14:21;-5.70;99.90
1277;DHT22;631;51.024;13.826;2023-02-08T04:16:47;-5.70;99.90
1277;DHT22;631;51.024;13.826;2023-02-08T04:19:12;-5.70;99.90
1277;DHT22;631;51.024;13.826;2023-02-08T04:21:38;-5.70;99.90
1277;DHT22;631;51.024;13.826;2023-02-08T04:24:04;-5.80;99.90
1277;DHT22;631;51.024;13.826;2023-02-08T04:26:29;-5.80;99.90
1277;DHT22;631;51.024;13.826;2023-02-08T04:28:55;-5.80;99.90
1277;DHT22;631;51.024;13.826;2023-02-08T04:31:20;-5.80;99.90
1277;DHT22;631;51.024;13.826;2023-02-08T04:33:46;-5.80;99.90
1277;DHT22;631;51.024;13.826;2023-02-08T04:36:12;-5.90;99.90
1277;DHT22;631;51.024;13.826;2023-02-08T04:38:37;-5.90;99.90
1277;DHT22;631;51.024;13.826;2023-02-08T04:41:03;-5.90;99.90
1277;DHT22;631;51.024;13.826;2023-02-08T04:43:28;-6.00;99.90
1277;DHT22;631;51.024;13.826;2023-02-08T04:45:55;-5.90;99.90
1277;DHT22;631;51.024;13.826;2023-02-08T04:48:21;-6.00;99.90
1277;DHT22;631;51.024;13.826;2023-02-08T04:50:46;-6.00;99.90
1277;DHT22;631;51.024;13.826;2023-02-08T04:53:12;-6.00;99.90
1277;DHT22;631;51.024;13.826;2023-02-08T04:55:37;-6.00;99.90
1277;DHT22;631;51.024;13.826;2023-02-08T04:58:04;-6.00;99.90
1277;DHT22;631;51.024;13.826;2023-02-08T05:00:30;-6.00;99.90
1277;DHT22;631;51.024;13.826;2023-02-08T05:02:57;-6.10;99.90
1277;DHT22;631;51.024;13.826;2023-02-08T05:05:24;-6.10;99.90
1277;DHT22;631;51.024;13.826;2023-02-08T05:07:52;-6.10;99.90
1277;DHT22;631;51.024;13.826;2023-02-08T05:10:18;-6.10;99.90
1277;DHT22;631;51.024;13.826;2023-02-08T05:12:44;-5.90;99.90
1277;DHT22;631;51.024;13.826;2023-02-08T05:15:09;-5.90;99.90
1277;DHT22;631;51.024;13.826;2023-02-08T05:17:35;-5.90;99.90
1277;DHT22;631;51.024;13.826;2023-02-08T05:20:02;-5.90;99.90
1277;DHT22;631;51.024;13.826;2023-02-08T05:22:27;-5.80;99.90
1277;DHT22;631;51.024;13.826;2023-02-08T05:24:53;-5.80;99.90
1277;DHT22;631;51.024;13.826;2023-02-08T05:27:19;-5.80;99.90
1277;DHT22;631;51.024;13.826;2023-02-08T05:29:45;-5.80;99.90
1277;DHT22;631;51.024;13.826;2023-02-08T05:32:11;-5.80;99.90
1277;DHT22;631;51.024;13.826;2023-02-08T05:34:37;-5.70;99.90
1277;DHT22;631;51.024;13.826;2023-02-08T05:37:03;-5.50;99.90
1277;DHT22;631;51.024;13.826;2023-02-08T05:39:29;-5.50;99.90
1277;DHT22;631;51.024;13.826;2023-02-08T05:41:54;-5.40;99.90
1277;DHT22;631;51.024;13.826;2023-02-08T05:44:20;-5.30;99.90
1277;DHT22;631;51.024;13.826;2023-02-08T05:46:45;-5.20;99.90
1277;DHT22;631;51.024;13.826;2023-02-08T05:49:11;-5.00;99.90
1277;DHT22;631;51.024;13.826;2023-02-08T05:51:37;-4.90;99.90
1277;DHT22;631;51.024;13.826;2023-02-08T05:54:02;-4.80;99.90
1277;DHT22;631;51.024;13.826;2023-02-08T05:56:28;-4.70;99.90
1277;DHT22;631;51.024;13.826;2023-02-08T05:58:54;-4.70;99.90
1277;DHT22;631;51.024;13.826;2023-02-08T06:01:20;-4.70;99.90
1277;DHT22;631;51.024;13.826;2023-02-08T06:03:46;-4.60;99.90
1277;DHT22;631;51.024;13.826;2023-02-08T06:06:12;-4.50;99.90
1277;DHT22;631;51.024;13.826;2023-02-08T06:08:38;-4.50;99.90
1277;DHT22;631;51.024;13.826;2023-02-08T06:11:05;-4.40;99.90
1277;DHT22;631;51.024;13.826;2023-02-08T06:13:31;-4.40;99.90
1277;DHT22;631;51.024;13.826;2023-02-08T06:15:56;-4.40;99.90
1277;DHT22;631;51.024;13.826;2023-02-08T06:18:22;-4.30;99.90
1277;DHT22;631;51.024;13.826;2023-02-08T06:20:51;-4.30;99.90
1277;DHT22;631;51.024;13.826;2023-02-08T06:23:17;-4.30;99.90
1277;DHT22;631;51.024;13.826;2023-02-08T06:25:43;-4.30;99.90
1277;DHT22;631;51.024;13.826;2023-02-08T06:28:08;-4.30;99.90
1277;DHT22;631;51.024;13.826;2023-02-08T06:30:35;-4.30;99.90
1277;DHT22;631;51.024;13.826;2023-02-08T06:33:01;-4.20;99.90
1277;DHT22;631;51.024;13.826;2023-02-08T06:35:27;-4.20;99.90
1277;DHT22;631;51.024;13.826;2023-02-08T06:37:52;-4.20;99.90
1277;DHT22;631;51.024;13.826;2023-02-08T06:40:18;-4.20;99.90
1277;DHT22;631;51.024;13.826;2023-02-08T06:42:46;-4.20;99.90
1277;DHT22;631;51.024;13.826;2023-02-08T06:45:12;-4.20;99.90
1277;DHT22;631;51.024;13.826;2023-02-08T06:47:37;-4.20;99.90
1277;DHT22;631;51.024;13.826;2023-02-08T06:50:03;-4.20;99.90
1277;DHT22;631;51.024;13.826;2023-02-08T06:52:29;-4.20;99.90
1277;DHT22;631;51.024;13.826;2023-02-08T06:54:54;-4.10;99.90
1277;DHT22;631;51.024;13.826;2023-02-08T06:57:20;-4.10;99.90
1277;DHT22;631;51.024;13.826;2023-02-08T06:59:46;-4.10;99.90
1277;DHT22;631;51.024;13.826;2023-02-08T07:02:13;-4.10;99.90
1277;DHT22;631;51.024;13.826;2023-02-08T07:04:39;-4.10;99.90
1277;DHT22;631;51.024;13.826;2023-02-08T07:07:05;-4.00;99.90
1277;DHT22;631;51.024;13.826;2023-02-08T07:09:32;-4.00;99.90
1277;DHT22;631;51.024;13.826;2023-02-08T07:11:58;-4.00;99.90
1277;DHT22;631;51.024;13.826;2023-02-08T07:14:24;-4.00;99.90
1277;DHT22;631;51.024;13.826;2023-02-08T07:16:49;-4.00;99.90
1277;DHT22;631;51.024;13.826;2023-02-08T07:19:16;-3.90;99.90
1277;DHT22;631;51.024;13.826;2023-02-08T07:21:41;-3.90;99.90
1277;DHT22;631;51.024;13.826;2023-02-08T07:24:07;-3.90;99.90
1277;DHT22;631;51.024;13.826;2023-02-08T07:26:32;-3.80;99.90
1277;DHT22;631;51.024;13.826;2023-02-08T07:28:58;-3.70;99.90
1277;DHT22;631;51.024;13.826;2023-02-08T07:31:24;-3.70;99.90
1277;DHT22;631;51.024;13.826;2023-02-08T07:33:49;-3.60;99.90
1277;DHT22;631;51.024;13.826;2023-02-08T07:36:15;-3.50;99.90
1277;DHT22;631;51.024;13.826;2023-02-08T07:38:41;-3.50;99.90
1277;DHT22;631;51.024;13.826;2023-02-08T07:41:09;-3.40;99.90
1277;DHT22;631;51.024;13.826;2023-02-08T07:43:35;-3.40;99.90
1277;DHT22;631;51.024;13.826;2023-02-08T07:46:09;-3.30;99.90
1277;DHT22;631;51.024;13.826;2023-02-08T07:48:35;-3.30;99.90
1277;DHT22;631;51.024;13.826;2023-02-08T07:51:01;-3.20;99.90
1277;DHT22;631;51.024;13.826;2023-02-08T07:53:28;-3.20;99.90
1277;DHT22;631;51.024;13.826;2023-02-08T07:55:54;-3.10;99.90
1277;DHT22;631;51.024;13.826;2023-02-08T07:58:20;-3.00;99.90
1277;DHT22;631;51.024;13.826;2023-02-08T08:00:45;-3.00;99.90
1277;DHT22;631;51.024;13.826;2023-02-08T08:03:11;-2.90;99.90
1277;DHT22;631;51.024;13.826;2023-02-08T08:05:39;-2.70;99.90
1277;DHT22;631;51.024;13.826;2023-02-08T08:08:06;-2.60;99.90
1277;DHT22;631;51.024;13.826;2023-02-08T08:10:32;-2.40;99.90
1277;DHT22;631;51.024;13.826;2023-02-08T08:12:58;-2.10;99.90
1277;DHT22;631;51.024;13.826;2023-02-08T08:15:24;-1.80;99.90
1277;DHT22;631;51.024;13.826;2023-02-08T08:17:49;-1.60;99.90
1277;DHT22;631;51.024;13.826;2023-02-08T08:20:15;-1.40;99.90
1277;DHT22;631;51.024;13.826;2023-02-08T08:22:41;-0.90;99.90
1277;DHT22;631;51.024;13.826;2023-02-08T08:25:06;-0.60;99.90
1277;DHT22;631;51.024;13.826;2023-02-08T08:27:33;-0.30;99.90
1277;DHT22;631;51.024;13.826;2023-02-08T08:29:59;-0.10;99.90
1277;DHT22;631;51.024;13.826;2023-02-08T08:32:25;0.10;99.90
1277;DHT22;631;51.024;13.826;2023-02-08T08:34:51;0.40;99.90
1277;DHT22;631;51.024;13.826;2023-02-08T08:37:17;0.80;99.90
1277;DHT22;631;51.024;13.826;2023-02-08T08:39:42;0.90;99.90
1277;DHT22;631;51.024;13.826;2023-02-08T08:42:08;1.30;99.90
1277;DHT22;631;51.024;13.826;2023-02-08T08:44:33;1.50;99.90
1277;DHT22;631;51.024;13.826;2023-02-08T08:46:59;1.80;99.90
1277;DHT22;631;51.024;13.826;2023-02-08T08:49:27;1.80;99.90
1277;DHT22;631;51.024;13.826;2023-02-08T08:51:53;2.10;99.90
1277;DHT22;631;51.024;13.826;2023-02-08T08:54:20;2.60;98.70
1277;DHT22;631;51.024;13.826;2023-02-08T08:56:45;3.10;95.90
1277;DHT22;631;51.024;13.826;2023-02-08T08:59:11;3.30;93.60
1277;DHT22;631;51.024;13.826;2023-02-08T09:01:37;3.30;90.90
1277;DHT22;631;51.024;13.826;2023-02-08T09:04:03;3.30;89.90
1277;DHT22;631;51.024;13.826;2023-02-08T09:06:29;3.20;90.20
1277;DHT22;631;51.024;13.826;2023-02-08T09:08:55;3.50;90.60
1277;DHT22;631;51.024;13.826;2023-02-08T09:11:21;3.60;88.00
1277;DHT22;631;51.024;13.826;2023-02-08T09:13:47;4.00;85.40
1277;DHT22;631;51.024;13.826;2023-02-08T09:16:18;4.10;84.70
1277;DHT22;631;51.024;13.826;2023-02-08T09:18:44;4.00;79.30
1277;DHT22;631;51.024;13.826;2023-02-08T09:21:11;4.10;79.90
1277;DHT22;631;51.024;13.826;2023-02-08T09:23:37;4.30;77.60
1277;DHT22;631;51.024;13.826;2023-02-08T09:26:08;4.20;76.00
1277;DHT22;631;51.024;13.826;2023-02-08T09:28:34;4.30;73.60
1277;DHT22;631;51.024;13.826;2023-02-08T09:31:12;4.30;70.50
1277;DHT22;631;51.024;13.826;2023-02-08T09:33:39;4.30;72.10
1277;DHT22;631;51.024;13.826;2023-02-08T09:36:05;4.50;70.00
1277;DHT22;631;51.024;13.826;2023-02-08T09:38:32;4.50;67.60
1277;DHT22;631;51.024;13.826;2023-02-08T09:44:09;4.40;66.80
1277;DHT22;631;51.024;13.826;2023-02-08T09:46:42;4.50;67.70
1277;DHT22;631;51.024;13.826;2023-02-08T09:49:16;4.60;66.40
1277;DHT22;631;51.024;13.826;2023-02-08T09:51:46;4.30;66.50
1277;DHT22;631;51.024;13.826;2023-02-08T09:56:52;4.80;63.00
1277;DHT22;631;51.024;13.826;2023-02-08T09:59:27;5.20;62.40
1277;DHT22;631;51.024;13.826;2023-02-08T10:02:30;5.30;60.00
1277;DHT22;631;51.024;13.826;2023-02-08T10:05:00;5.30;60.70
1277;DHT22;631;51.024;13.826;2023-02-08T10:07:27;5.60;59.00
1277;DHT22;631;51.024;13.826;2023-02-08T10:09:56;5.70;57.90
1277;DHT22;631;51.024;13.826;2023-02-08T10:13:01;5.60;57.90
1277;DHT22;631;51.024;13.826;2023-02-08T10:30:00;7.00;53.50
1277;DHT22;631;51.024;13.826;2023-02-08T10:32:48;7.00;50.50
1277;DHT22;631;51.024;13.826;2023-02-08T10:35:34;7.40;50.80
1277;DHT22;631;51.024;13.826;2023-02-08T10:40:49;8.20;46.90
1277;DHT22;631;51.024;13.826;2023-02-08T10:46:09;7.50;47.80
1277;DHT22;631;51.024;13.826;2023-02-08T10:51:35;7.90;46.10
1277;DHT22;631;51.024;13.826;2023-02-08T10:54:01;7.90;46.10
1277;DHT22;631;51.024;13.826;2023-02-08T10:58:56;6.20;46.60
1277;DHT22;631;51.024;13.826;2023-02-08T11:01:23;6.40;47.60
1277;DHT22;631;51.024;13.826;2023-02-08T11:06:26;7.20;49.50
1277;DHT22;631;51.024;13.826;2023-02-08T11:08:55;8.00;47.10
1277;DHT22;631;51.024;13.826;2023-02-08T11:11:23;8.50;44.90
1277;DHT22;631;51.024;13.826;2023-02-08T11:13:51;8.00;43.00
1277;DHT22;631;51.024;13.826;2023-02-08T11:16:22;7.70;44.20
1277;DHT22;631;51.024;13.826;2023-02-08T11:18:55;7.80;44.20
1277;DHT22;631;51.024;13.826;2023-02-08T11:21:31;7.90;45.70
1277;DHT22;631;51.024;13.826;2023-02-08T11:24:03;7.90;44.90
1277;DHT22;631;51.024;13.826;2023-02-08T11:26:35;8.10;43.70
1277;DHT22;631;51.024;13.826;2023-02-08T11:29:19;7.30;43.50
1277;DHT22;631;51.024;13.826;2023-02-08T11:34:47;7.90;43.20
1277;DHT22;631;51.024;13.826;2023-02-08T11:37:20;8.60;42.90
1277;DHT22;631;51.024;13.826;2023-02-08T11:39:55;9.00;42.30
1277;DHT22;631;51.024;13.826;2023-02-08T11:44:52;9.10;40.30
1277;DHT22;631;51.024;13.826;2023-02-08T11:47:24;8.90;39.20
1277;DHT22;631;51.024;13.826;2023-02-08T11:49:55;8.00;40.70
1277;DHT22;631;51.024;13.826;2023-02-08T11:52:24;7.60;41.40
1277;DHT22;631;51.024;13.826;2023-02-08T11:54:51;6.90;42.90
1277;DHT22;631;51.024;13.826;2023-02-08T11:57:25;7.20;44.10
1277;DHT22;631;51.024;13.826;2023-02-08T12:00:16;7.70;43.70
1277;DHT22;631;51.024;13.826;2023-02-08T12:02:43;8.00;42.50
1277;DHT22;631;51.024;13.826;2023-02-08T12:05:16;7.60;42.10
1277;DHT22;631;51.024;13.826;2023-02-08T12:07:52;6.70;42.30
1277;DHT22;631;51.024;13.826;2023-02-08T12:13:02;7.60;43.60
1277;DHT22;631;51.024;13.826;2023-02-08T12:18:19;8.20;41.40
1277;DHT22;631;51.024;13.826;2023-02-08T12:23:41;8.00;42.40
1277;DHT22;631;51.024;13.826;2023-02-08T12:26:19;7.80;40.90
1277;DHT22;631;51.024;13.826;2023-02-08T12:40:42;6.30;44.20
1277;DHT22;631;51.024;13.826;2023-02-08T12:54:03;5.20;47.30
1277;DHT22;631;51.024;13.826;2023-02-08T12:56:37;5.90;47.10
1277;DHT22;631;51.024;13.826;2023-02-08T12:59:05;5.90;44.30
1277;DHT22;631;51.024;13.826;2023-02-08T13:01:39;6.40;44.70
1277;DHT22;631;51.024;13.826;2023-02-08T13:06:45;4.80;46.80
1277;DHT22;631;51.024;13.826;2023-02-08T13:15:20;5.80;47.20
1277;DHT22;631;51.024;13.826;2023-02-08T13:17:58;5.80;45.40
1277;DHT22;631;51.024;13.826;2023-02-08T13:26:01;6.70;47.50
1277;DHT22;631;51.024;13.826;2023-02-08T13:28:28;7.60;44.90
1277;DHT22;631;51.024;13.826;2023-02-08T13:36:03;8.40;40.10
1277;DHT22;631;51.024;13.826;2023-02-08T13:38:33;7.30;40.60
1277;DHT22;631;51.024;13.826;2023-02-08T13:43:36;7.70;43.40
1277;DHT22;631;51.024;13.826;2023-02-08T13:46:03;7.50;43.10
1277;DHT22;631;51.024;13.826;2023-02-08T13:48:41;7.30;42.90
1277;DHT22;631;51.024;13.826;2023-02-08T13:56:51;6.70;45.40
1277;DHT22;631;51.024;13.826;2023-02-08T13:59:38;5.60;45.70
1277;DHT22;631;51.024;13.826;2023-02-08T14:04:49;6.20;46.70
1277;DHT22;631;51.024;13.826;2023-02-08T14:10:09;6.00;44.70
1277;DHT22;631;51.024;13.826;2023-02-08T14:12:52;6.50;45.80
1277;DHT22;631;51.024;13.826;2023-02-08T14:17:54;5.90;45.20
1277;DHT22;631;51.024;13.826;2023-02-08T14:20:39;5.90;46.40
1277;DHT22;631;51.024;13.826;2023-02-08T14:23:38;5.60;45.50
1277;DHT22;631;51.024;13.826;2023-02-08T14:26:08;5.10;46.40
1277;DHT22;631;51.024;13.826;2023-02-08T14:28:44;4.70;47.60
1277;DHT22;631;51.024;13.826;2023-02-08T14:31:11;4.60;48.90
1277;DHT22;631;51.024;13.826;2023-02-08T14:33:51;5.10;50.30
1277;DHT22;631;51.024;13.826;2023-02-08T14:36:30;5.20;49.90
1277;DHT22;631;51.024;13.826;2023-02-08T14:39:25;5.10;50.10
1277;DHT22;631;51.024;13.826;2023-02-08T14:41:56;4.90;50.10
1277;DHT22;631;51.024;13.826;2023-02-08T14:50:17;5.30;51.70
1277;DHT22;631;51.024;13.826;2023-02-08T14:55:49;5.00;50.70
1277;DHT22;631;51.024;13.826;2023-02-08T14:58:38;5.00;50.70
1277;DHT22;631;51.024;13.826;2023-02-08T15:01:36;5.10;51.00
1277;DHT22;631;51.024;13.826;2023-02-08T15:03:58;5.30;51.30
1277;DHT22;631;51.024;13.826;2023-02-08T15:09:30;4.80;49.90
1277;DHT22;631;51.024;13.826;2023-02-08T15:14:22;4.80;52.10
1277;DHT22;631;51.024;13.826;2023-02-08T15:16:48;4.80;52.70
1277;DHT22;631;51.024;13.826;2023-02-08T15:21:51;4.50;52.70
1277;DHT22;631;51.024;13.826;2023-02-08T15:24:20;4.40;53.50
1277;DHT22;631;51.024;13.826;2023-02-08T15:26:52;4.20;54.00
1277;DHT22;631;51.024;13.826;2023-02-08T15:29:27;4.10;54.50
1277;DHT22;631;51.024;13.826;2023-02-08T15:31:53;3.90;55.50
1277;DHT22;631;51.024;13.826;2023-02-08T15:34:22;3.90;56.70
1277;DHT22;631;51.024;13.826;2023-02-08T15:36:54;3.80;58.00
1277;DHT22;631;51.024;13.826;2023-02-08T15:39:30;3.70;58.30
1277;DHT22;631;51.024;13.826;2023-02-08T15:41:57;3.50;58.40
1277;DHT22;631;51.024;13.826;2023-02-08T15:44:45;3.40;59.30
1277;DHT22;631;51.024;13.826;2023-02-08T15:47:32;3.20;60.90
1277;DHT22;631;51.024;13.826;2023-02-08T15:49:59;3.00;63.90
1277;DHT22;631;51.024;13.826;2023-02-08T15:52:31;2.80;65.70
1277;DHT22;631;51.024;13.826;2023-02-08T15:54:57;2.60;67.70
1277;DHT22;631;51.024;13.826;2023-02-08T15:59:58;2.20;73.10
1277;DHT22;631;51.024;13.826;2023-02-08T16:02:29;2.10;75.70
1277;DHT22;631;51.024;13.826;2023-02-08T16:04:56;1.80;77.80
1277;DHT22;631;51.024;13.826;2023-02-08T16:07:33;1.70;80.20
1277;DHT22;631;51.024;13.826;2023-02-08T16:10:00;1.60;81.60
1277;DHT22;631;51.024;13.826;2023-02-08T16:12:27;1.40;83.30
1277;DHT22;631;51.024;13.826;2023-02-08T16:14:54;1.30;85.50
1277;DHT22;631;51.024;13.826;2023-02-08T16:17:37;1.10;87.60
1277;DHT22;631;51.024;13.826;2023-02-08T16:20:26;1.00;90.00
1277;DHT22;631;51.024;13.826;2023-02-08T16:23:00;0.90;90.90
1277;DHT22;631;51.024;13.826;2023-02-08T16:28:02;0.70;92.00
1277;DHT22;631;51.024;13.826;2023-02-08T16:30:28;0.60;92.70
1277;DHT22;631;51.024;13.826;2023-02-08T16:32:53;0.50;93.40
1277;DHT22;631;51.024;13.826;2023-02-08T16:35:26;0.40;94.10
1277;DHT22;631;51.024;13.826;2023-02-08T16:37:58;0.40;95.50
1277;DHT22;631;51.024;13.826;2023-02-08T16:43:17;0.20;95.90
1277;DHT22;631;51.024;13.826;2023-02-08T16:45:43;0.10;96.20
1277;DHT22;631;51.024;13.826;2023-02-08T16:48:31;0.10;96.70
1277;DHT22;631;51.024;13.826;2023-02-08T16:51:00;0.00;97.20
1277;DHT22;631;51.024;13.826;2023-02-08T16:53:27;0.00;97.70
1277;DHT22;631;51.024;13.826;2023-02-08T16:55:54;-0.10;98.10
1277;DHT22;631;51.024;13.826;2023-02-08T16:58:20;-0.20;98.50
1277;DHT22;631;51.024;13.826;2023-02-08T17:00:46;-0.20;99.00
1277;DHT22;631;51.024;13.826;2023-02-08T17:03:12;-0.30;99.40
1277;DHT22;631;51.024;13.826;2023-02-08T17:05:38;-0.40;99.90
1277;DHT22;631;51.024;13.826;2023-02-08T17:08:07;-0.40;99.90
1277;DHT22;631;51.024;13.826;2023-02-08T17:10:36;-0.40;99.90
1277;DHT22;631;51.024;13.826;2023-02-08T17:13:02;-0.40;99.90
1277;DHT22;631;51.024;13.826;2023-02-08T17:15:28;-0.50;99.90
1277;DHT22;631;51.024;13.826;2023-02-08T17:17:54;-0.50;99.90
1277;DHT22;631;51.024;13.826;2023-02-08T17:20:23;-0.50;99.90
1277;DHT22;631;51.024;13.826;2023-02-08T17:22:51;-0.60;99.90
1277;DHT22;631;51.024;13.826;2023-02-08T17:25:18;-0.60;99.90
1277;DHT22;631;51.024;13.826;2023-02-08T17:27:50;-0.60;99.90
1277;DHT22;631;51.024;13.826;2023-02-08T17:30:21;-0.60;99.90
1277;DHT22;631;51.024;13.826;2023-02-08T17:32:48;-0.70;99.90
1277;DHT22;631;51.024;13.826;2023-02-08T17:35:14;-0.70;99.90
1277;DHT22;631;51.024;13.826;2023-02-08T17:37:42;-0.70;99.90
1277;DHT22;631;51.024;13.826;2023-02-08T17:40:08;-0.70;99.90
1277;DHT22;631;51.024;13.826;2023-02-08T17:42:34;-0.70;99.90
1277;DHT22;631;51.024;13.826;2023-02-08T17:44:59;-0.80;99.90
1277;DHT22;631;51.024;13.826;2023-02-08T17:47:25;-0.80;99.90
1277;DHT22;631;51.024;13.826;2023-02-08T17:49:51;-0.80;99.90
1277;DHT22;631;51.024;13.826;2023-02-08T17:52:16;-0.80;99.90
1277;DHT22;631;51.024;13.826;2023-02-08T17:54:42;-0.80;99.90
1277;DHT22;631;51.024;13.826;2023-02-08T17:57:08;-0.80;99.90
1277;DHT22;631;51.024;13.826;2023-02-08T17:59:38;-0.80;99.90
1277;DHT22;631;51.024;13.826;2023-02-08T18:02:04;-0.80;99.90
1277;DHT22;631;51.024;13.826;2023-02-08T18:04:29;-0.80;99.90
1277;DHT22;631;51.024;13.826;2023-02-08T18:06:55;-0.90;99.90
1277;DHT22;631;51.024;13.826;2023-02-08T18:09:21;-0.90;99.90
1277;DHT22;631;51.024;13.826;2023-02-08T18:11:47;-0.90;99.90
1277;DHT22;631;51.024;13.826;2023-02-08T18:14:12;-1.00;99.90
1277;DHT22;631;51.024;13.826;2023-02-08T18:16:38;-1.00;99.90
1277;DHT22;631;51.024;13.826;2023-02-08T18:19:04;-1.00;99.90
1277;DHT22;631;51.024;13.826;2023-02-08T18:21:30;-1.00;99.90
1277;DHT22;631;51.024;13.826;2023-02-08T18:24:01;-1.10;99.90
1277;DHT22;631;51.024;13.826;2023-02-08T18:26:27;-1.10;99.90
1277;DHT22;631;51.024;13.826;2023-02-08T18:28:55;-1.20;99.90
1277;DHT22;631;51.024;13.826;2023-02-08T18:31:21;-1.20;99.90
1277;DHT22;631;51.024;13.826;2023-02-08T18:33:48;-1.20;99.90
1277;DHT22;631;51.024;13.826;2023-02-08T18:36:14;-1.30;99.90
1277;DHT22;631;51.024;13.826;2023-02-08T18:38:43;-1.30;99.90
1277;DHT22;631;51.024;13.826;2023-02-08T18:41:19;-1.30;99.90
1277;DHT22;631;51.024;13.826;2023-02-08T18:43:46;-1.40;99.90
1277;DHT22;631;51.024;13.826;2023-02-08T18:46:15;-1.40;99.90
1277;DHT22;631;51.024;13.826;2023-02-08T18:48:43;-1.40;99.90
1277;DHT22;631;51.024;13.826;2023-02-08T18:51:11;-1.40;99.90
1277;DHT22;631;51.024;13.826;2023-02-08T18:53:39;-1.40;99.90
1277;DHT22;631;51.024;13.826;2023-02-08T18:56:07;-1.50;99.90
1277;DHT22;631;51.024;13.826;2023-02-08T18:58:34;-1.50;99.90
1277;DHT22;631;51.024;13.826;2023-02-08T19:01:14;-1.50;99.90
1277;DHT22;631;51.024;13.826;2023-02-08T19:03:42;-1.50;99.90
1277;DHT22;631;51.024;13.826;2023-02-08T19:06:11;-1.50;99.90
1277;DHT22;631;51.024;13.826;2023-02-08T19:08:37;-1.60;99.90
1277;DHT22;631;51.024;13.826;2023-02-08T19:11:11;-1.60;99.90
1277;DHT22;631;51.024;13.826;2023-02-08T19:13:37;-1.50;99.90
1277;DHT22;631;51.024;13.826;2023-02-08T19:16:05;-1.50;99.90
1277;DHT22;631;51.024;13.826;2023-02-08T19:18:31;-1.60;99.90
1277;DHT22;631;51.024;13.826;2023-02-08T19:21:08;-1.60;99.90